createdAt,value
2022-10-08T00:00:42.621Z,14.48
2022-10-08T00:01:42.980Z,14.55
2022-10-08T00:02:43.201Z,14.53
2022-10-08T00:03:45.411Z,14.55
2022-10-08T00:04:45.523Z,14.59
2022-10-08T00:05:45.729Z,14.58
2022-10-08T00:06:44.609Z,14.70
2022-10-08T00:07:48.030Z,14.70
2022-10-08T00:08:44.950Z,14.69
2022-10-08T00:09:47.103Z,14.69
2022-10-08T00:10:45.486Z,14.60
2022-10-08T00:11:47.674Z,14.59
2022-10-08T00:12:49.633Z,14.66
2022-10-08T00:13:46.461Z,14.68
2022-10-08T00:14:48.644Z,14.72
2022-10-08T00:15:47.052Z,14.73
2022-10-08T00:16:49.214Z,14.77
2022-10-08T00:17:47.599Z,14.78
2022-10-08T00:18:49.800Z,14.81
2022-10-08T00:19:48.181Z,14.78
2022-10-08T00:20:48.489Z,14.86
2022-10-08T00:21:50.680Z,14.89
2022-10-08T00:22:49.502Z,14.81
2022-10-08T00:23:49.412Z,14.81
2022-10-08T00:24:51.573Z,14.81
2022-10-08T00:25:51.740Z,14.77
2022-10-08T00:26:51.942Z,14.72
2022-10-08T00:27:51.594Z,14.77
2022-10-08T00:28:50.825Z,14.79
2022-10-08T00:29:51.143Z,14.72
2022-10-08T00:30:51.443Z,14.78
2022-10-08T00:31:53.699Z,14.78
2022-10-08T00:32:56.530Z,14.81
2022-10-08T00:33:53.394Z,14.89
2022-10-08T00:34:52.639Z,14.79
2022-10-08T00:35:54.832Z,14.72
2022-10-08T00:36:55.026Z,14.84
2022-10-08T00:37:54.473Z,14.89
2022-10-08T00:38:53.841Z,14.89
2022-10-08T00:39:54.151Z,14.94
2022-10-08T00:40:54.458Z,14.96
2022-10-08T00:41:55.787Z,14.94
2022-10-08T00:42:55.041Z,14.96
2022-10-08T00:43:55.363Z,14.94
2022-10-08T00:44:55.667Z,15.06
2022-10-08T00:45:56.010Z,15.07
2022-10-08T00:46:58.308Z,15.06
2022-10-08T00:47:59.957Z,15.06
2022-10-08T00:48:56.882Z,15.06
2022-10-08T00:49:57.197Z,15.09
2022-10-08T00:50:57.511Z,15.04
2022-10-08T00:51:59.733Z,15.03
2022-10-08T00:53:00.532Z,15.03
2022-10-08T00:54:00.288Z,15.14
2022-10-08T00:54:58.543Z,15.09
2022-10-08T00:55:58.855Z,15.06
2022-10-08T00:56:59.168Z,15.04
2022-10-08T00:58:01.520Z,15.03
2022-10-08T00:58:59.818Z,15.04
2022-10-08T01:00:00.136Z,15.09
2022-10-08T01:01:00.441Z,15.07
2022-10-08T01:02:00.775Z,15.04
2022-10-08T01:03:03.919Z,15.04
2022-10-08T01:04:01.265Z,15.07
2022-10-08T01:05:01.582Z,15.03
2022-10-08T01:06:02.788Z,15.02
2022-10-08T01:07:02.955Z,14.96
2022-10-08T01:08:04.351Z,14.92
2022-10-08T01:09:04.541Z,14.82
2022-10-08T01:10:03.947Z,14.89
2022-10-08T01:11:04.268Z,14.77
2022-10-08T01:12:03.653Z,14.79
2022-10-08T01:13:06.792Z,14.72
2022-10-08T01:14:06.020Z,14.72
2022-10-08T01:15:04.541Z,14.65
2022-10-08T01:16:07.775Z,14.68
2022-10-08T01:17:06.087Z,14.63
2022-10-08T01:18:08.830Z,14.63
2022-10-08T01:19:06.662Z,14.66
2022-10-08T01:20:07.919Z,14.59
2022-10-08T01:21:07.239Z,14.60
2022-10-08T01:22:07.401Z,14.59
2022-10-08T01:23:07.821Z,14.62
2022-10-08T01:24:07.979Z,14.58
2022-10-08T01:25:09.348Z,14.63
2022-10-08T01:26:08.551Z,14.58
2022-10-08T01:27:08.044Z,14.59
2022-10-08T01:28:08.904Z,14.60
2022-10-08T01:29:08.606Z,14.60
2022-10-08T01:30:09.799Z,14.53
2022-10-08T01:31:09.220Z,14.58
2022-10-08T01:32:09.485Z,14.55
2022-10-08T01:33:11.721Z,14.59
2022-10-08T01:34:11.902Z,14.55
2022-10-08T01:35:12.087Z,14.60
2022-10-08T01:36:10.711Z,14.68
2022-10-08T01:37:11.026Z,14.62
2022-10-08T01:38:14.211Z,14.65
2022-10-08T01:39:13.424Z,14.55
2022-10-08T01:40:13.615Z,14.68
2022-10-08T01:41:13.810Z,14.69
2022-10-08T01:42:14.498Z,14.70
2022-10-08T01:43:15.648Z,14.69
2022-10-08T01:44:13.170Z,14.78
2022-10-08T01:45:15.374Z,14.69
2022-10-08T01:46:15.677Z,14.62
2022-10-08T01:47:14.035Z,14.65
2022-10-08T01:48:16.707Z,14.63
2022-10-08T01:49:14.601Z,14.63
2022-10-08T01:50:15.788Z,14.69
2022-10-08T01:51:17.983Z,14.68
2022-10-08T01:52:17.356Z,14.70
2022-10-08T01:53:18.815Z,14.69
2022-10-08T01:54:17.536Z,14.66
2022-10-08T01:55:17.720Z,14.65
2022-10-08T01:56:18.429Z,14.69
2022-10-08T01:57:18.589Z,14.70
2022-10-08T01:58:18.775Z,14.79
2022-10-08T01:59:17.397Z,14.72
2022-10-08T02:00:19.567Z,14.66
2022-10-08T02:01:18.077Z,14.79
2022-10-08T02:02:20.227Z,14.84
2022-10-08T02:03:18.496Z,14.82
2022-10-08T02:04:20.674Z,14.81
2022-10-08T02:05:20.868Z,14.78
2022-10-08T02:06:19.385Z,14.79
2022-10-08T02:07:19.691Z,14.73
2022-10-08T02:08:20.011Z,14.70
2022-10-08T02:09:22.174Z,14.77
2022-10-08T02:10:22.360Z,14.72
2022-10-08T02:11:20.871Z,14.84
2022-10-08T02:12:23.036Z,14.82
2022-10-08T02:13:23.199Z,14.81
2022-10-08T02:14:23.351Z,14.84
2022-10-08T02:15:22.048Z,14.88
2022-10-08T02:16:24.286Z,14.91
2022-10-08T02:17:22.527Z,14.81
2022-10-08T02:18:22.828Z,14.78
2022-10-08T02:19:24.999Z,14.85
2022-10-08T02:20:25.182Z,14.78
2022-10-08T02:21:23.693Z,14.77
2022-10-08T02:22:24.003Z,14.78
2022-10-08T02:23:24.319Z,14.73
2022-10-08T02:24:26.496Z,14.81
2022-10-08T02:25:24.889Z,14.82
2022-10-08T02:26:27.076Z,14.73
2022-10-08T02:27:25.458Z,14.81
2022-10-08T02:28:25.819Z,14.84
2022-10-08T02:29:26.003Z,14.84
2022-10-08T02:30:28.181Z,14.89
2022-10-08T02:31:26.651Z,14.97
2022-10-08T02:32:26.801Z,14.99
2022-10-08T02:33:27.144Z,15.00
2022-10-08T02:34:27.434Z,14.91
2022-10-08T02:35:29.620Z,14.88
2022-10-08T02:36:28.010Z,14.89
2022-10-08T02:37:28.317Z,14.94
2022-10-08T02:38:28.699Z,15.00
2022-10-08T02:39:28.895Z,14.96
2022-10-08T02:40:31.075Z,14.97
2022-10-08T02:41:31.264Z,15.02
2022-10-08T02:42:29.792Z,15.04
2022-10-08T02:43:32.166Z,15.02
2022-10-08T02:44:30.449Z,14.99
2022-10-08T02:45:34.103Z,15.02
2022-10-08T02:46:34.263Z,15.02
2022-10-08T02:47:31.296Z,15.03
2022-10-08T02:48:32.439Z,14.94
2022-10-08T02:49:31.947Z,14.94
2022-10-08T02:50:34.127Z,14.91
2022-10-08T02:51:34.314Z,14.92
2022-10-08T02:52:32.807Z,14.91
2022-10-08T02:53:36.467Z,14.84
2022-10-08T02:54:33.374Z,14.88
2022-10-08T02:55:35.637Z,14.81
2022-10-08T02:56:34.025Z,14.92
2022-10-08T02:57:36.200Z,14.94
2022-10-08T02:58:36.365Z,14.86
2022-10-08T02:59:34.890Z,14.89
2022-10-08T03:00:35.181Z,14.86
2022-10-08T03:01:38.339Z,14.78
2022-10-08T03:02:35.839Z,14.82
2022-10-08T03:03:39.463Z,14.89
2022-10-08T03:04:37.288Z,14.91
2022-10-08T03:05:37.634Z,14.79
2022-10-08T03:06:37.878Z,14.79
2022-10-08T03:07:38.280Z,14.79
2022-10-08T03:08:40.500Z,14.84
2022-10-08T03:09:39.738Z,14.69
2022-10-08T03:10:39.203Z,14.68
2022-10-08T03:11:38.569Z,14.66
2022-10-08T03:12:38.862Z,14.73
2022-10-08T03:13:42.531Z,14.72
2022-10-08T03:14:41.263Z,14.70
2022-10-08T03:15:39.764Z,14.79
2022-10-08T03:16:41.070Z,14.73
2022-10-08T03:17:40.405Z,14.73
2022-10-08T03:18:41.690Z,14.72
2022-10-08T03:19:42.912Z,14.63
2022-10-08T03:20:41.304Z,14.66
2022-10-08T03:21:43.472Z,14.65
2022-10-08T03:22:43.704Z,14.65
2022-10-08T03:23:44.169Z,14.62
2022-10-08T03:24:44.045Z,14.63
2022-10-08T03:25:44.223Z,14.69
2022-10-08T03:26:44.907Z,14.73
2022-10-08T03:27:44.263Z,14.70
2022-10-08T03:28:46.988Z,14.65
2022-10-08T03:29:43.900Z,14.69
2022-10-08T03:30:44.281Z,14.70
2022-10-08T03:31:44.468Z,14.66
2022-10-08T03:32:46.947Z,14.63
2022-10-08T03:33:47.022Z,14.62
2022-10-08T03:34:45.415Z,14.51
2022-10-08T03:35:45.722Z,14.53
2022-10-08T03:36:46.044Z,14.54
2022-10-08T03:37:48.227Z,14.53
2022-10-08T03:38:48.447Z,14.58
2022-10-08T03:39:48.614Z,14.59
2022-10-08T03:40:47.246Z,14.58
2022-10-08T03:41:47.558Z,14.50
2022-10-08T03:42:50.050Z,14.50
2022-10-08T03:43:49.158Z,14.40
2022-10-08T03:44:50.430Z,14.37
2022-10-08T03:45:50.660Z,14.40
2022-10-08T03:46:50.837Z,14.37
2022-10-08T03:47:51.021Z,14.37
2022-10-08T03:48:50.737Z,14.25
2022-10-08T03:49:51.973Z,14.30
2022-10-08T03:50:52.162Z,14.22
2022-10-08T03:51:52.314Z,14.17
2022-10-08T03:52:52.496Z,14.17
2022-10-08T03:53:52.295Z,14.18
2022-10-08T03:54:53.473Z,14.28
2022-10-08T03:55:51.863Z,14.30
2022-10-08T03:56:54.085Z,14.41
2022-10-08T03:57:52.499Z,14.29
2022-10-08T03:58:53.608Z,14.30
2022-10-08T03:59:53.085Z,14.36
2022-10-08T04:00:53.403Z,14.36
2022-10-08T04:01:53.748Z,14.28
2022-10-08T04:02:54.044Z,14.29
2022-10-08T04:03:57.720Z,14.32
2022-10-08T04:04:54.628Z,14.26
2022-10-08T04:05:54.938Z,14.18
2022-10-08T04:06:55.217Z,14.29
2022-10-08T04:07:55.518Z,14.20
2022-10-08T04:08:56.860Z,14.25
2022-10-08T04:09:56.123Z,14.20
2022-10-08T04:10:56.420Z,14.29
2022-10-08T04:11:57.700Z,14.30
2022-10-08T04:12:57.058Z,14.26
2022-10-08T04:13:59.336Z,14.14
2022-10-08T04:14:57.603Z,14.08
2022-10-08T04:15:59.866Z,14.11
2022-10-08T04:16:58.149Z,14.15
2022-10-08T04:17:58.460Z,14.07
2022-10-08T04:18:59.762Z,14.18
2022-10-08T04:20:00.999Z,14.12
2022-10-08T04:21:01.176Z,14.12
2022-10-08T04:21:59.562Z,13.99
2022-10-08T04:23:01.720Z,13.96
2022-10-08T04:24:02.866Z,13.95
2022-10-08T04:25:00.396Z,13.90
2022-10-08T04:26:02.551Z,14.00
2022-10-08T04:27:02.729Z,13.93
2022-10-08T04:28:01.307Z,14.00
2022-10-08T04:29:04.355Z,13.92
2022-10-08T04:30:03.587Z,13.90
2022-10-08T04:31:02.255Z,13.93
2022-10-08T04:32:04.403Z,13.86
2022-10-08T04:33:02.770Z,13.86
2022-10-08T04:34:05.925Z,13.90
2022-10-08T04:35:03.339Z,13.97
2022-10-08T04:36:03.638Z,13.92
2022-10-08T04:37:05.835Z,13.89
2022-10-08T04:38:06.722Z,13.79
2022-10-08T04:39:04.502Z,13.90
2022-10-08T04:40:05.783Z,13.92
2022-10-08T04:41:05.154Z,13.89
2022-10-08T04:42:07.349Z,13.90
2022-10-08T04:43:06.550Z,13.89
2022-10-08T04:44:06.050Z,13.87
2022-10-08T04:45:06.351Z,13.78
2022-10-08T04:46:06.731Z,13.75
2022-10-08T04:47:07.016Z,13.79
2022-10-08T04:48:10.698Z,13.81
2022-10-08T04:49:07.596Z,13.78
2022-10-08T04:50:09.786Z,13.78
2022-10-08T04:51:10.517Z,13.86
2022-10-08T04:52:08.415Z,13.72
2022-10-08T04:53:10.611Z,13.72
2022-10-08T04:54:10.795Z,13.68
2022-10-08T04:55:11.938Z,13.72
2022-10-08T04:56:12.138Z,13.75
2022-10-08T04:57:10.829Z,13.72
2022-10-08T04:58:12.105Z,13.71
2022-10-08T04:59:11.399Z,13.74
2022-10-08T05:00:18.077Z,13.74
2022-10-08T05:01:12.126Z,13.67
2022-10-08T05:02:14.774Z,13.67
2022-10-08T05:03:14.516Z,13.65
2022-10-08T05:04:14.599Z,13.71
2022-10-08T05:05:12.251Z,13.63
2022-10-08T05:06:12.556Z,13.67
2022-10-08T05:07:13.704Z,13.63
2022-10-08T05:08:16.519Z,13.67
2022-10-08T05:09:15.257Z,13.72
2022-10-08T05:10:14.694Z,13.67
2022-10-08T05:11:15.976Z,13.78
2022-10-08T05:12:15.272Z,13.75
2022-10-08T05:13:15.620Z,13.77
2022-10-08T05:14:16.841Z,13.77
2022-10-08T05:15:15.118Z,13.71
2022-10-08T05:16:15.536Z,13.74
2022-10-08T05:17:17.641Z,13.77
2022-10-08T05:18:16.036Z,13.72
2022-10-08T05:19:18.245Z,13.71
2022-10-08T05:20:16.644Z,13.81
2022-10-08T05:21:16.981Z,13.72
2022-10-08T05:22:19.151Z,13.77
2022-10-08T05:23:19.354Z,13.77
2022-10-08T05:24:20.991Z,13.78
2022-10-08T05:25:19.719Z,13.79
2022-10-08T05:26:25.786Z,13.87
2022-10-08T05:27:19.733Z,13.89
2022-10-08T05:28:20.962Z,13.95
2022-10-08T05:29:21.112Z,13.93
2022-10-08T05:30:22.156Z,13.97
2022-10-08T05:31:21.536Z,13.90
2022-10-08T05:32:21.660Z,13.95
2022-10-08T05:33:21.861Z,13.93
2022-10-08T05:34:22.548Z,13.85
2022-10-08T05:35:24.190Z,13.86
2022-10-08T05:36:21.232Z,13.86
2022-10-08T05:37:24.896Z,13.77
2022-10-08T05:38:23.633Z,13.77
2022-10-08T05:39:23.816Z,13.83
2022-10-08T05:40:22.485Z,13.89
2022-10-08T05:41:22.831Z,13.97
2022-10-08T05:42:24.165Z,13.79
2022-10-08T05:43:23.426Z,13.70
2022-10-08T05:44:25.616Z,13.68
2022-10-08T05:45:24.033Z,13.63
2022-10-08T05:46:24.441Z,13.52
2022-10-08T05:47:25.480Z,13.54
2022-10-08T05:48:24.872Z,13.53
2022-10-08T05:49:27.061Z,13.35
2022-10-08T05:50:25.475Z,13.33
2022-10-08T05:51:25.820Z,13.31
2022-10-08T05:52:27.052Z,13.37
2022-10-08T05:53:28.267Z,13.35
2022-10-08T05:54:26.576Z,13.41
2022-10-08T05:55:26.815Z,13.33
2022-10-08T05:56:28.996Z,13.19
2022-10-08T05:57:30.201Z,13.28
2022-10-08T05:58:30.456Z,13.25
2022-10-08T05:59:29.706Z,13.28
2022-10-08T06:00:28.078Z,13.31
2022-10-08T06:01:28.329Z,13.31
2022-10-08T06:02:29.574Z,13.33
2022-10-08T06:03:28.823Z,13.30
2022-10-08T06:04:29.074Z,13.33
2022-10-08T06:05:31.226Z,13.35
2022-10-08T06:06:29.523Z,13.27
2022-10-08T06:07:32.698Z,13.31
2022-10-08T06:08:30.075Z,13.27
2022-10-08T06:09:30.305Z,13.35
2022-10-08T06:10:32.477Z,13.31
2022-10-08T06:11:30.782Z,13.30
2022-10-08T06:12:33.318Z,13.31
2022-10-08T06:13:31.255Z,13.22
2022-10-08T06:14:33.439Z,13.25
2022-10-08T06:15:33.627Z,13.23
2022-10-08T06:16:32.111Z,13.30
2022-10-08T06:17:34.383Z,13.35
2022-10-08T06:18:32.676Z,13.47
2022-10-08T06:19:33.926Z,13.47
2022-10-08T06:20:35.273Z,13.56
2022-10-08T06:21:33.591Z,13.59
2022-10-08T06:22:34.975Z,13.71
2022-10-08T06:23:36.182Z,13.74
2022-10-08T06:24:34.490Z,13.75
2022-10-08T06:25:36.670Z,13.79
2022-10-08T06:26:36.251Z,13.86
2022-10-08T06:27:36.228Z,13.78
2022-10-08T06:28:35.680Z,13.77
2022-10-08T06:29:35.885Z,13.81
2022-10-08T06:30:39.523Z,13.81
2022-10-08T06:31:36.479Z,13.92
2022-10-08T06:32:37.544Z,13.89
2022-10-08T06:33:38.932Z,13.97
2022-10-08T06:34:37.212Z,14.08
2022-10-08T06:35:37.561Z,13.95
2022-10-08T06:36:37.791Z,13.90
2022-10-08T06:37:40.979Z,13.37
2022-10-08T06:38:40.214Z,13.37
2022-10-08T06:39:38.756Z,13.31
2022-10-08T06:40:38.999Z,13.42
2022-10-08T06:41:39.648Z,13.52
2022-10-08T06:42:42.995Z,13.47
2022-10-08T06:43:39.827Z,13.33
2022-10-08T06:44:41.006Z,13.44
2022-10-08T06:45:40.320Z,13.37
2022-10-08T06:46:40.627Z,13.37
2022-10-08T06:47:42.760Z,13.31
2022-10-08T06:48:41.173Z,13.30
2022-10-08T06:49:41.431Z,13.28
2022-10-08T06:50:41.643Z,13.31
2022-10-08T06:51:41.988Z,13.22
2022-10-08T06:52:43.626Z,13.20
2022-10-08T06:53:43.467Z,13.09
2022-10-08T06:54:42.732Z,12.91
2022-10-08T06:55:46.339Z,12.80
2022-10-08T06:56:43.290Z,12.73
2022-10-08T06:57:45.487Z,12.65
2022-10-08T06:58:44.910Z,12.40
2022-10-08T06:59:44.178Z,12.40
2022-10-08T07:00:46.428Z,12.39
2022-10-08T07:01:46.647Z,12.45
2022-10-08T07:02:46.912Z,12.49
2022-10-08T07:03:47.938Z,12.47
2022-10-08T07:04:46.504Z,12.43
2022-10-08T07:05:45.910Z,12.32
2022-10-08T07:06:49.007Z,12.40
2022-10-08T07:07:49.199Z,12.45
2022-10-08T07:08:49.418Z,12.43
2022-10-08T07:09:48.077Z,12.46
2022-10-08T07:10:48.239Z,12.43
2022-10-08T07:11:48.605Z,12.45
2022-10-08T07:12:50.267Z,12.46
2022-10-08T07:13:50.251Z,12.62
2022-10-08T07:14:49.400Z,12.60
2022-10-08T07:15:49.771Z,12.62
2022-10-08T07:16:49.990Z,12.60
2022-10-08T07:17:51.210Z,12.54
2022-10-08T07:18:52.369Z,12.65
2022-10-08T07:19:49.809Z,12.68
2022-10-08T07:20:50.139Z,12.70
2022-10-08T07:21:50.375Z,12.76
2022-10-08T07:22:52.569Z,12.73
2022-10-08T07:23:51.845Z,12.78
2022-10-08T07:24:51.367Z,12.86
2022-10-08T07:25:51.615Z,12.93
2022-10-08T07:26:51.846Z,12.98
2022-10-08T07:27:54.032Z,13.04
2022-10-08T07:28:55.202Z,13.09
2022-10-08T07:29:54.441Z,13.04
2022-10-08T07:30:54.628Z,13.05
2022-10-08T07:31:54.867Z,13.22
2022-10-08T07:32:55.482Z,13.93
2022-10-08T07:33:56.681Z,14.70
2022-10-08T07:34:59.927Z,15.36
2022-10-08T07:35:56.591Z,15.90
2022-10-08T07:36:56.792Z,16.24
2022-10-08T07:37:57.857Z,16.09
2022-10-08T07:38:58.513Z,16.31
2022-10-08T07:39:55.841Z,16.41
2022-10-08T07:40:56.068Z,16.21
2022-10-08T07:41:56.299Z,16.00
2022-10-08T07:42:57.445Z,15.47
2022-10-08T07:44:00.296Z,15.55
2022-10-08T07:44:57.131Z,15.09
2022-10-08T07:45:59.381Z,14.92
2022-10-08T07:46:59.505Z,14.79
2022-10-08T07:47:58.091Z,14.82
2022-10-08T07:49:01.000Z,14.54
2022-10-08T07:49:58.515Z,14.48
2022-10-08T07:50:58.703Z,14.54
2022-10-08T07:51:59.896Z,14.37
2022-10-08T07:52:59.201Z,14.22
2022-10-08T07:54:03.116Z,14.20
2022-10-08T07:55:01.576Z,14.26
2022-10-08T07:56:00.012Z,14.23
2022-10-08T07:57:01.284Z,14.28
2022-10-08T07:58:03.988Z,14.15
2022-10-08T07:59:02.713Z,14.29
2022-10-08T08:00:01.143Z,14.40
2022-10-08T08:01:03.450Z,14.32
2022-10-08T08:02:02.679Z,14.37
2022-10-08T08:03:01.947Z,14.23
2022-10-08T08:04:04.136Z,14.30
2022-10-08T08:05:02.446Z,14.43
2022-10-08T08:06:02.685Z,14.45
2022-10-08T08:07:04.880Z,14.50
2022-10-08T08:08:03.248Z,14.66
2022-10-08T08:09:05.364Z,14.43
2022-10-08T08:10:03.792Z,14.37
2022-10-08T08:11:04.039Z,14.53
2022-10-08T08:12:06.196Z,14.50
2022-10-08T08:13:04.517Z,14.36
2022-10-08T08:14:06.706Z,14.33
2022-10-08T08:15:05.017Z,14.28
2022-10-08T08:16:06.111Z,14.41
2022-10-08T08:17:07.438Z,14.58
2022-10-08T08:18:05.760Z,14.66
2022-10-08T08:19:07.939Z,14.69
2022-10-08T08:20:06.258Z,14.60
2022-10-08T08:21:06.488Z,14.82
2022-10-08T08:22:08.689Z,14.77
2022-10-08T08:23:06.993Z,14.88
2022-10-08T08:24:09.168Z,15.18
2022-10-08T08:25:07.496Z,15.54
2022-10-08T08:26:07.726Z,15.84
2022-10-08T08:27:09.911Z,16.20
2022-10-08T08:28:08.331Z,16.41
2022-10-08T08:29:10.406Z,16.50
2022-10-08T08:30:08.843Z,16.15
2022-10-08T08:31:09.088Z,16.16
2022-10-08T08:32:09.368Z,16.75
2022-10-08T08:33:11.519Z,17.06
2022-10-08T08:34:11.704Z,16.58
2022-10-08T08:35:11.879Z,16.41
2022-10-08T08:36:10.440Z,15.97
2022-10-08T08:37:12.643Z,15.77
2022-10-08T08:38:10.955Z,15.98
2022-10-08T08:39:13.132Z,15.91
2022-10-08T08:40:13.319Z,15.64
2022-10-08T08:41:14.126Z,15.57
2022-10-08T08:42:11.996Z,15.57
2022-10-08T08:43:12.233Z,15.49
2022-10-08T08:44:14.409Z,15.44
2022-10-08T08:45:34.231Z,15.44
2022-10-08T08:46:14.168Z,15.39
2022-10-08T08:47:13.299Z,15.57
2022-10-08T08:48:13.555Z,15.31
2022-10-08T08:49:15.728Z,15.36
2022-10-08T08:50:15.932Z,15.19
2022-10-08T08:51:14.347Z,15.44
2022-10-08T08:52:14.583Z,15.47
2022-10-08T08:53:14.857Z,15.47
2022-10-08T08:54:15.093Z,15.39
2022-10-08T08:55:17.356Z,15.42
2022-10-08T08:56:15.689Z,15.43
2022-10-08T08:57:15.929Z,15.39
2022-10-08T08:58:16.180Z,15.57
2022-10-08T08:59:16.419Z,15.59
2022-10-08T09:00:19.578Z,15.94
2022-10-08T09:01:16.936Z,16.46
2022-10-08T09:02:19.110Z,16.96
2022-10-08T09:03:17.421Z,17.87
2022-10-08T09:04:17.757Z,17.46
2022-10-08T09:05:19.055Z,17.49
2022-10-08T09:06:18.322Z,17.46
2022-10-08T09:07:20.504Z,17.42
2022-10-08T09:08:18.817Z,17.42
2022-10-08T09:09:19.922Z,17.65
2022-10-08T09:10:22.217Z,18.15
2022-10-08T09:11:19.697Z,18.00
2022-10-08T09:12:22.840Z,17.85
2022-10-08T09:13:21.065Z,17.94
2022-10-08T09:14:21.477Z,17.68
2022-10-08T09:15:22.697Z,17.11
2022-10-08T09:16:21.806Z,17.30
2022-10-08T09:17:23.256Z,17.44
2022-10-08T09:18:22.429Z,17.63
2022-10-08T09:19:22.789Z,17.94
2022-10-08T09:20:24.171Z,18.13
2022-10-08T09:21:22.484Z,18.03
2022-10-08T09:22:26.123Z,18.18
2022-10-08T09:23:22.984Z,18.04
2022-10-08T09:24:26.215Z,17.87
2022-10-08T09:25:26.332Z,17.57
2022-10-08T09:26:23.768Z,17.64
2022-10-08T09:27:25.021Z,17.80
2022-10-08T09:28:25.302Z,18.04
2022-10-08T09:29:25.549Z,17.80
2022-10-08T09:30:26.346Z,17.52
2022-10-08T09:31:26.053Z,17.09
2022-10-08T09:32:26.403Z,16.57
2022-10-08T09:33:26.567Z,16.26
2022-10-08T09:34:26.971Z,16.00
2022-10-08T09:35:28.197Z,15.97
2022-10-08T09:36:29.308Z,15.68
2022-10-08T09:37:26.754Z,15.47
2022-10-08T09:38:26.982Z,15.33
2022-10-08T09:39:28.058Z,15.25
2022-10-08T09:40:27.456Z,15.14
2022-10-08T09:41:29.637Z,15.17
2022-10-08T09:42:29.817Z,15.17
2022-10-08T09:43:30.002Z,15.10
2022-10-08T09:44:31.187Z,15.09
2022-10-08T09:45:28.995Z,15.02
2022-10-08T09:46:29.302Z,15.62
2022-10-08T09:47:29.578Z,16.21
2022-10-08T09:48:30.761Z,16.50
2022-10-08T09:49:30.917Z,16.76
2022-10-08T09:50:32.248Z,17.23
2022-10-08T09:51:32.422Z,17.48
2022-10-08T09:52:32.599Z,18.08
2022-10-08T09:53:32.792Z,17.80
2022-10-08T09:54:34.449Z,17.39
2022-10-08T09:55:33.707Z,17.30
2022-10-08T09:56:33.916Z,17.48
2022-10-08T09:57:34.087Z,17.97
2022-10-08T09:58:34.258Z,18.04
2022-10-08T09:59:33.119Z,17.92
2022-10-08T10:00:33.176Z,17.45
2022-10-08T10:01:33.473Z,17.42
2022-10-08T10:02:33.804Z,17.26
2022-10-08T10:03:35.955Z,17.48
2022-10-08T10:04:35.370Z,17.63
2022-10-08T10:05:36.559Z,17.70
2022-10-08T10:06:35.005Z,17.82
2022-10-08T10:07:38.666Z,18.20
2022-10-08T10:08:37.386Z,18.23
2022-10-08T10:09:36.882Z,17.63
2022-10-08T10:10:36.057Z,17.31
2022-10-08T10:11:38.264Z,17.29
2022-10-08T10:12:38.439Z,17.51
2022-10-08T10:13:38.642Z,17.82
2022-10-08T10:14:38.321Z,17.95
2022-10-08T10:15:37.619Z,17.80
2022-10-08T10:16:39.842Z,17.92
2022-10-08T10:17:39.991Z,18.04
2022-10-08T10:18:40.167Z,17.89
2022-10-08T10:19:42.375Z,17.52
2022-10-08T10:20:39.078Z,17.57
2022-10-08T10:21:39.330Z,17.48
2022-10-08T10:22:39.583Z,17.56
2022-10-08T10:23:41.772Z,17.48
2022-10-08T10:24:40.871Z,17.70
2022-10-08T10:25:40.294Z,17.60
2022-10-08T10:26:40.533Z,17.76
2022-10-08T10:27:42.735Z,17.57
2022-10-08T10:28:41.106Z,17.44
2022-10-08T10:29:44.717Z,17.72
2022-10-08T10:30:43.547Z,17.72
2022-10-08T10:31:41.930Z,17.95
2022-10-08T10:32:42.174Z,18.00
2022-10-08T10:33:42.421Z,17.89
2022-10-08T10:34:43.636Z,17.65
2022-10-08T10:35:44.869Z,18.08
2022-10-08T10:36:43.176Z,18.18
2022-10-08T10:37:45.586Z,18.31
2022-10-08T10:38:43.662Z,18.60
2022-10-08T10:39:44.806Z,18.65
2022-10-08T10:40:44.242Z,18.44
2022-10-08T10:41:44.482Z,18.74
2022-10-08T10:42:44.993Z,18.52
2022-10-08T10:43:46.899Z,18.90
2022-10-08T10:44:45.453Z,18.68
2022-10-08T10:45:45.696Z,18.40
2022-10-08T10:46:47.846Z,17.79
2022-10-08T10:47:46.160Z,18.00
2022-10-08T10:48:48.366Z,18.35
2022-10-08T10:49:49.534Z,17.94
2022-10-08T10:50:46.989Z,18.34
2022-10-08T10:51:47.215Z,17.94
2022-10-08T10:52:47.679Z,17.64
2022-10-08T10:53:49.718Z,16.91
2022-10-08T10:54:49.010Z,16.36
2022-10-08T10:55:54.464Z,16.00
2022-10-08T10:56:48.599Z,16.21
2022-10-08T10:57:48.911Z,16.32
2022-10-08T10:58:49.156Z,16.16
2022-10-08T10:59:49.455Z,16.47
2022-10-08T11:00:51.603Z,17.26
2022-10-08T11:01:50.078Z,17.04
2022-10-08T11:02:50.584Z,17.46
2022-10-08T11:03:52.501Z,17.82
2022-10-08T11:04:51.789Z,18.01
2022-10-08T11:05:51.092Z,18.16
2022-10-08T11:06:51.335Z,18.34
2022-10-08T11:07:53.596Z,18.50
2022-10-08T11:08:51.792Z,18.65
2022-10-08T11:09:53.507Z,18.68
2022-10-08T11:10:52.428Z,18.38
2022-10-08T11:11:52.631Z,17.98
2022-10-08T11:12:57.326Z,17.70
2022-10-08T11:13:53.166Z,17.67
2022-10-08T11:14:56.306Z,16.96
2022-10-08T11:15:56.554Z,17.02
2022-10-08T11:16:54.097Z,17.56
2022-10-08T11:17:55.391Z,17.65
2022-10-08T11:18:55.400Z,17.24
2022-10-08T11:19:56.738Z,16.50
2022-10-08T11:20:56.039Z,16.09
2022-10-08T11:21:57.290Z,16.50
2022-10-08T11:22:57.472Z,17.08
2022-10-08T11:23:55.919Z,17.63
2022-10-08T11:24:56.159Z,17.92
2022-10-08T11:26:20.525Z,18.43
2022-10-08T11:26:57.681Z,17.76
2022-10-08T11:27:59.828Z,16.86
2022-10-08T11:28:57.266Z,16.32
2022-10-08T11:29:59.460Z,16.29
2022-10-08T11:31:01.187Z,16.66
2022-10-08T11:31:58.008Z,17.29
2022-10-08T11:33:00.202Z,17.70
2022-10-08T11:33:58.510Z,17.82
2022-10-08T11:34:58.747Z,17.57
2022-10-08T11:36:00.970Z,16.84
2022-10-08T11:36:59.269Z,16.89
2022-10-08T11:37:59.512Z,17.27
2022-10-08T11:39:01.692Z,17.67
2022-10-08T11:40:00.011Z,17.94
2022-10-08T11:41:01.215Z,17.57
2022-10-08T11:42:00.517Z,17.19
2022-10-08T11:43:02.702Z,17.97
2022-10-08T11:44:01.958Z,18.11
2022-10-08T11:45:01.252Z,17.15
2022-10-08T11:46:04.969Z,16.68
2022-10-08T11:47:03.793Z,16.35
2022-10-08T11:48:09.082Z,16.53
2022-10-08T11:49:03.421Z,16.75
2022-10-08T11:50:02.735Z,17.39
2022-10-08T11:51:06.450Z,17.70
2022-10-08T11:52:06.649Z,18.05
2022-10-08T11:53:03.600Z,18.41
2022-10-08T11:54:03.847Z,18.58
2022-10-08T11:55:04.084Z,18.77
2022-10-08T11:56:05.354Z,18.73
2022-10-08T11:57:06.626Z,19.07
2022-10-08T11:58:08.468Z,19.07
2022-10-08T11:59:06.930Z,18.37
2022-10-08T12:00:08.509Z,18.31
2022-10-08T12:01:06.744Z,17.67
2022-10-08T12:02:06.078Z,17.06
2022-10-08T12:03:06.388Z,16.71
2022-10-08T12:04:08.468Z,16.43
2022-10-08T12:05:06.903Z,16.87
2022-10-08T12:06:08.102Z,16.24
2022-10-08T12:07:07.391Z,16.05
2022-10-08T12:08:08.590Z,15.80
2022-10-08T12:09:08.825Z,15.84
2022-10-08T12:10:10.029Z,15.72
2022-10-08T12:11:09.349Z,15.68
2022-10-08T12:12:08.789Z,15.65
2022-10-08T12:13:10.411Z,15.65
2022-10-08T12:14:11.395Z,16.21
2022-10-08T12:15:09.688Z,16.96
2022-10-08T12:16:11.431Z,16.69
2022-10-08T12:17:12.165Z,16.65
2022-10-08T12:18:12.351Z,17.08
2022-10-08T12:19:13.626Z,17.08
2022-10-08T12:20:12.784Z,17.23
2022-10-08T12:21:12.231Z,16.96
2022-10-08T12:22:13.183Z,16.65
2022-10-08T12:23:13.868Z,16.24
2022-10-08T12:24:14.071Z,15.59
2022-10-08T12:25:14.408Z,15.19
2022-10-08T12:26:13.804Z,14.89
2022-10-08T12:27:15.172Z,14.79
2022-10-08T12:28:13.529Z,14.59
2022-10-08T12:29:13.735Z,14.53
2022-10-08T12:30:16.005Z,14.45
2022-10-08T12:31:15.343Z,14.59
2022-10-08T12:32:14.634Z,14.79
2022-10-08T12:33:14.867Z,15.04
2022-10-08T12:34:17.052Z,15.02
2022-10-08T12:35:17.238Z,14.84
2022-10-08T12:36:18.397Z,14.72
2022-10-08T12:37:16.749Z,14.70
2022-10-08T12:38:16.212Z,14.78
2022-10-08T12:39:16.442Z,14.72
2022-10-08T12:40:16.679Z,14.79
2022-10-08T12:41:20.325Z,14.88
2022-10-08T12:42:17.158Z,14.97
2022-10-08T12:43:17.380Z,15.09
2022-10-08T12:44:17.617Z,15.10
2022-10-08T12:45:17.852Z,15.18
2022-10-08T12:46:21.563Z,15.11
2022-10-08T12:47:18.371Z,15.28
2022-10-08T12:48:20.555Z,15.39
2022-10-08T12:49:18.867Z,16.33
2022-10-08T12:50:21.056Z,17.05
2022-10-08T12:51:20.375Z,16.94
2022-10-08T12:52:20.516Z,16.94
2022-10-08T12:53:19.949Z,17.48
2022-10-08T12:54:20.186Z,17.39
2022-10-08T12:55:22.369Z,17.79
2022-10-08T12:56:23.585Z,17.83